Time;durP1;ratioP1;P1;durP2;ratioP2;P2;SDS_P1;SDS_P2;PMS_P1;PMS_P2;Temp;Humidity;BMP_temperature;BMP_pressure;BME280_temperature;BME280_humidity;BME280_pressure;Samples;Min_cycle;Max_cycle;Signal;HPM_P1;HPM_P2
2022/01/31 00:00:08;;;;;;;11.15;6.37;;;;;;;-0.88;99.57;147455.06;1730334;81;21065;-60
2022/01/31 00:02:38;;;;;;;12.43;5.75;;;;;;;-0.83;99.43;147467.91;1716366;81;21014;-59
2022/01/31 00:05:05;;;;;;;11.28;5.30;;;;;;;-0.78;99.43;147479.44;1737272;80;20977;-58
2022/01/31 00:07:34;;;;;;;12.35;6.28;;;;;;;-0.71;99.48;147497.48;1721600;81;21639;-60
2022/01/31 00:10:06;;;;;;;11.57;5.58;;;;;;;-0.66;99.29;147510.34;1704406;81;21617;-59
2022/01/31 00:12:33;;;;;;;8.60;4.85;;;;;;;-0.60;99.11;147525.75;1716129;81;21075;-60
2022/01/31 00:15:02;;;;;;;7.15;4.33;;;;;;;-0.56;98.97;147533.47;1684932;82;21413;-59
2022/01/31 00:17:28;;;;;;;7.55;4.67;;;;;;;-0.49;98.93;147551.50;1702865;82;21082;-58
2022/01/31 00:19:55;;;;;;;7.78;4.15;;;;;;;-0.42;98.79;147569.50;1715188;80;21732;-59
2022/01/31 00:22:21;;;;;;;8.38;4.45;;;;;;;-0.35;98.51;147586.23;1706871;83;21523;-59
2022/01/31 00:24:49;;;;;;;7.87;4.20;;;;;;;-0.30;98.20;147600.41;1745777;81;21033;-59
2022/01/31 00:27:16;;;;;;;7.60;4.17;;;;;;;-0.26;97.82;147609.38;1738220;81;21008;-59
2022/01/31 00:29:43;;;;;;;9.40;4.87;;;;;;;-0.24;97.47;147613.27;1708402;81;21651;-60
2022/01/31 00:32:10;;;;;;;9.05;4.78;;;;;;;-0.21;97.23;147622.28;1704857;82;21057;-59
2022/01/31 00:34:37;;;;;;;10.60;4.47;;;;;;;-0.17;96.93;147631.25;1710584;81;21119;-59
2022/01/31 00:37:05;;;;;;;8.08;4.03;;;;;;;-0.14;96.57;147638.97;1747111;81;20966;-59
2022/01/31 00:39:35;;;;;;;6.60;3.83;;;;;;;-0.11;96.24;147645.42;1722620;80;21095;-59
2022/01/31 00:42:02;;;;;;;5.42;3.55;;;;;;;-0.08;96.05;147654.45;1739419;81;21638;-59
2022/01/31 00:44:49;;;;;;;5.20;3.22;;;;;;;-0.01;95.96;147672.45;1713227;81;21097;-59
2022/01/31 00:47:21;;;;;;;6.90;3.35;;;;;;;0.06;95.56;147687.87;1718621;81;21945;-60
2022/01/31 00:50:04;;;;;;;7.12;3.37;;;;;;;0.10;95.24;147698.17;1711128;81;21040;-59
2022/01/31 00:52:12;;;;;;;6.08;2.87;;;;;;;0.14;95.05;147709.77;1706510;82;21104;-59
2022/01/31 00:54:39;;;;;;;6.15;2.85;;;;;;;0.19;94.92;147721.38;1721037;81;21089;-59
2022/01/31 00:57:05;;;;;;;3.92;2.50;;;;;;;0.25;94.89;147736.80;1740858;81;21057;-60
2022/01/31 00:59:32;;;;;;;5.33;3.00;;;;;;;0.33;94.72;147756.11;1716783;83;21169;-60
2022/01/31 01:01:59;;;;;;;4.47;2.65;;;;;;;0.40;94.62;147772.86;1722081;81;20969;-59
2022/01/31 01:04:26;;;;;;;4.50;2.47;;;;;;;0.45;94.55;147785.72;1707536;81;21023;-60
2022/01/31 01:06:53;;;;;;;4.75;2.80;;;;;;;0.53;94.58;147806.31;1727875;81;21042;-59
2022/01/31 01:09:20;;;;;;;5.22;3.00;;;;;;;0.63;94.46;147829.52;1712600;82;21069;-59
2022/01/31 01:11:47;;;;;;;6.22;3.25;;;;;;;0.69;94.23;147844.95;1718116;81;21126;-59
2022/01/31 01:14:13;;;;;;;4.08;2.27;;;;;;;0.75;94.08;147859.12;1728647;81;21505;-59
2022/01/31 01:16:40;;;;;;;7.53;2.83;;;;;;;0.80;94.04;147873.31;1747799;81;21119;-59
2022/01/31 01:19:07;;;;;;;4.03;2.40;;;;;;;0.85;94.06;147886.17;1713269;82;21003;-58
2022/01/31 01:21:34;;;;;;;4.58;2.50;;;;;;;0.91;94.12;147899.03;1753458;80;21079;-59
2022/01/31 01:24:01;;;;;;;4.17;2.37;;;;;;;0.97;94.11;147914.48;1726067;81;21138;-58
2022/01/31 01:26:28;;;;;;;3.40;2.17;;;;;;;1.02;93.88;147927.41;1734442;81;21548;-58
2022/01/31 01:28:56;;;;;;;3.87;2.35;;;;;;;1.05;93.59;147935.13;1724360;82;21031;-59
2022/01/31 01:31:23;;;;;;;3.92;2.50;;;;;;;1.05;93.43;147935.13;1724477;81;22137;-59
2022/01/31 01:33:52;;;;;;;2.62;2.15;;;;;;;1.05;93.27;147935.13;1712940;82;21067;-59
2022/01/31 01:36:21;;;;;;;5.42;2.75;;;;;;;1.05;93.22;147935.13;1713588;81;21043;-59
2022/01/31 01:38:48;;;;;;;5.58;2.40;;;;;;;1.06;93.37;147937.69;1731071;81;22128;-59
2022/01/31 01:41:15;;;;;;;3.83;2.25;;;;;;;1.08;93.46;147942.84;1750321;81;21120;-60
2022/01/31 01:43:42;;;;;;;4.30;2.20;;;;;;;1.11;93.62;147950.56;1723222;81;21066;-60
2022/01/31 01:46:09;;;;;;;3.62;2.00;;;;;;;1.14;93.78;147958.28;1709343;81;21059;-58
2022/01/31 01:48:35;;;;;;;3.95;2.08;;;;;;;1.19;93.92;147969.89;1714875;82;21089;-61
2022/01/31 01:51:03;;;;;;;4.55;2.45;;;;;;;1.21;93.90;147973.73;1709878;81;21482;-60
2022/01/31 01:53:31;;;;;;;4.10;2.20;;;;;;;1.22;93.86;147976.36;1713679;81;21111;-64
2022/01/31 01:55:58;;;;;;;3.52;2.02;;;;;;;1.23;93.85;147978.94;1715231;81;21022;-60
2022/01/31 01:58:29;;;;;;;2.85;1.90;;;;;;;1.23;93.93;147978.94;1739428;81;21116;-60
2022/01/31 02:00:59;;;;;;;2.55;1.77;;;;;;;1.24;94.11;147982.77;1732800;81;21294;-60
2022/01/31 02:03:37;;;;;;;3.27;1.62;;;;;;;1.26;94.25;147986.66;1728710;81;21112;-60
2022/01/31 02:06:06;;;;;;;3.08;1.52;;;;;;;1.27;94.44;147989.23;1723711;81;21088;-60
2022/01/31 02:08:42;;;;;;;2.62;1.40;;;;;;;1.29;94.62;147995.64;1728321;80;21072;-60
2022/01/31 02:11:12;;;;;;;2.40;1.25;;;;;;;1.32;94.69;148002.09;1714530;81;21599;-59
2022/01/31 02:13:40;;;;;;;2.58;1.57;;;;;;;1.36;94.86;148011.14;1738025;81;22300;-59
2022/01/31 02:16:08;;;;;;;4.60;1.80;;;;;;;1.41;94.87;148025.27;1756379;81;21041;-59
2022/01/31 02:18:50;;;;;;;2.27;1.40;;;;;;;1.42;94.79;148026.59;1722112;81;21081;-59
2022/01/31 02:21:34;;;;;;;2.25;1.22;;;;;;;1.45;94.69;148033.05;1715502;81;21115;-58
2022/01/31 02:24:02;;;;;;;2.72;1.40;;;;;;;1.47;94.59;148038.19;1712261;82;21758;-58
2022/01/31 02:26:31;;;;;;;1.95;1.30;;;;;;;1.50;94.57;148045.91;1750865;81;21597;-60
2022/01/31 02:29:11;;;;;;;2.98;1.57;;;;;;;1.51;94.54;148049.75;1728040;81;21138;-59
2022/01/31 02:31:46;;;;;;;2.08;1.25;;;;;;;1.54;94.40;148056.22;1711776;81;21211;-59
2022/01/31 02:34:14;;;;;;;2.52;1.32;;;;;;;1.54;94.19;148056.22;1722581;81;21078;-58
2022/01/31 02:36:40;;;;;;;2.27;1.42;;;;;;;1.52;94.01;148051.06;1709067;83;21071;-60
2022/01/31 02:39:08;;;;;;;3.65;1.57;;;;;;;1.51;93.92;148048.50;1740206;80;22249;-59
2022/01/31 02:41:45;;;;;;;3.08;1.60;;;;;;;1.49;94.03;148044.61;1741369;82;21046;-59
2022/01/31 02:44:15;;;;;;;3.42;1.80;;;;;;;1.51;93.99;148049.75;1733281;80;21088;-59
2022/01/31 02:46:52;;;;;;;3.98;1.95;;;;;;;1.51;93.82;148048.50;1723469;81;21080;-61
2022/01/31 02:49:19;;;;;;;3.17;1.62;;;;;;;1.51;93.77;148048.50;1719823;81;21017;-60
2022/01/31 02:51:49;;;;;;;2.42;1.60;;;;;;;1.51;93.77;148049.75;1753372;81;21103;-59
2022/01/31 02:54:14;;;;;;;2.72;1.57;;;;;;;1.51;93.72;148049.75;1718594;81;21048;-59
2022/01/31 02:56:41;;;;;;;2.98;1.70;;;;;;;1.49;93.68;148043.34;1740657;80;21053;-60
2022/01/31 02:59:08;;;;;;;2.15;1.30;;;;;;;1.48;93.61;148040.77;1712604;81;21478;-59
2022/01/31 03:01:37;;;;;;;2.47;1.57;;;;;;;1.45;93.49;148033.05;1738642;81;21084;-59
2022/01/31 03:04:07;;;;;;;4.03;1.70;;;;;;;1.42;93.52;148027.84;1720737;81;21463;-59
2022/01/31 03:06:38;;;;;;;2.58;1.52;;;;;;;1.42;93.57;148027.84;1723719;81;21035;-59
2022/01/31 03:09:05;;;;;;;2.65;1.70;;;;;;;1.41;93.39;148025.27;1724475;81;21084;-59
2022/01/31 03:11:34;;;;;;;1.80;1.30;;;;;;;1.39;93.26;148020.13;1714500;81;22275;-59
2022/01/31 03:14:02;;;;;;;3.42;1.62;;;;;;;1.37;93.28;148014.97;1740735;81;21521;-59
2022/01/31 03:16:31;;;;;;;2.30;1.30;;;;;;;1.35;93.29;148009.81;1712312;81;21086;-59
2022/01/31 03:19:07;;;;;;;3.35;1.80;;;;;;;1.33;93.32;148003.41;1707961;81;21028;-60
2022/01/31 03:21:34;;;;;;;2.98;1.50;;;;;;;1.31;93.46;147998.22;1698912;82;21124;-59
2022/01/31 03:24:04;;;;;;;2.55;1.40;;;;;;;1.31;93.64;147998.22;1718672;81;21051;-63
2022/01/31 03:26:31;;;;;;;3.10;1.75;;;;;;;1.32;93.89;148002.09;1712852;81;21099;-59
2022/01/31 03:28:58;;;;;;;2.87;1.30;;;;;;;1.35;94.16;148009.81;1745408;81;21047;-58
2022/01/31 03:31:25;;;;;;;2.25;1.22;;;;;;;1.40;94.32;148022.69;1724342;81;21436;-59
2022/01/31 03:33:53;;;;;;;2.85;1.65;;;;;;;1.45;94.37;148033.05;1725166;81;21058;-59
2022/01/31 03:36:20;;;;;;;2.65;1.30;;;;;;;1.49;94.40;148043.34;1727609;81;21175;-58
2022/01/31 03:38:47;;;;;;;2.22;1.20;;;;;;;1.51;94.43;148048.50;1720571;82;21146;-59
2022/01/31 03:41:19;;;;;;;3.00;1.40;;;;;;;1.55;94.42;148058.78;1718823;81;21148;-60
2022/01/31 03:43:46;;;;;;;3.08;1.80;;;;;;;1.58;94.41;148066.52;1732503;81;21040;-60
2022/01/31 03:46:14;;;;;;;2.40;1.35;;;;;;;1.62;94.31;148076.81;1717042;81;21079;-59
2022/01/31 03:48:41;;;;;;;3.52;1.35;;;;;;;1.65;93.94;148084.55;1711704;82;21821;-59
2022/01/31 03:51:10;;;;;;;3.33;1.50;;;;;;;1.65;93.65;148084.55;1747507;81;21124;-58
2022/01/31 03:53:37;;;;;;;3.90;1.55;;;;;;;1.63;93.29;148079.39;1710950;82;22096;-59
2022/01/31 03:56:05;;;;;;;2.22;1.25;;;;;;;1.60;93.05;148071.66;1681868;84;21308;-59
2022/01/31 03:58:33;;;;;;;2.35;1.50;;;;;;;1.57;92.99;148063.94;1687746;83;21057;-59
2022/01/31 04:01:02;;;;;;;3.33;1.72;;;;;;;1.55;92.94;148060.11;1691711;84;21040;-59
2022/01/31 04:03:29;;;;;;;3.80;1.65;;;;;;;1.53;92.77;148053.64;1669564;84;21064;-59
2022/01/31 04:05:56;;;;;;;3.12;1.60;;;;;;;1.49;92.65;148043.34;1685878;83;22222;-59
2022/01/31 04:08:22;;;;;;;2.02;1.20;;;;;;;1.42;92.51;148027.84;1704192;83;21134;-60
2022/01/31 04:10:49;;;;;;;1.92;1.25;;;;;;;1.39;92.49;148018.86;1702556;83;21068;-59
2022/01/31 04:13:18;;;;;;;4.80;1.40;;;;;;;1.33;92.43;148004.67;1704726;83;21041;-59
2022/01/31 04:15:45;;;;;;;2.58;1.30;;;;;;;1.29;92.53;147995.64;1685636;84;21088;-59
2022/01/31 04:18:13;;;;;;;1.98;1.20;;;;;;;1.26;92.67;147987.91;1695545;83;21829;-58
2022/01/31 04:20:39;;;;;;;3.05;1.52;;;;;;;1.25;92.72;147984.08;1705395;82;21063;-58
2022/01/31 04:23:10;;;;;;;3.22;1.90;;;;;;;1.24;92.80;147981.50;1725233;82;21072;-59
2022/01/31 04:28:25;;;;;;;3.02;1.60;;;;;;;1.23;92.77;147978.94;1700829;83;21503;-60
2022/01/31 04:31:13;;;;;;;3.77;1.50;;;;;;;1.25;92.75;147984.08;1693965;83;21142;-59
2022/01/31 04:33:27;;;;;;;3.02;1.52;;;;;;;1.26;92.75;147986.66;1700071;84;21573;-59
2022/01/31 04:35:54;;;;;;;3.62;1.27;;;;;;;1.28;92.68;147993.06;1690652;84;21466;-58
2022/01/31 04:38:21;;;;;;;3.62;1.40;;;;;;;1.32;92.57;148000.78;1692833;84;21562;-59
2022/01/31 04:40:48;;;;;;;3.62;1.30;;;;;;;1.33;92.43;148003.41;1672813;83;21091;-59
2022/01/31 04:43:14;;;;;;;2.77;1.32;;;;;;;1.34;92.27;148007.25;1682279;84;21132;-60
2022/01/31 04:45:47;;;;;;;4.25;1.45;;;;;;;1.34;92.14;148007.25;1701911;82;21502;-59
2022/01/31 04:48:09;;;;;;;1.98;1.30;;;;;;;1.35;92.04;148009.81;1705143;83;21048;-59
2022/01/31 04:50:35;;;;;;;2.70;1.50;;;;;;;1.36;91.93;148012.39;1702448;83;21477;-60
2022/01/31 04:53:02;;;;;;;4.20;1.55;;;;;;;1.36;91.86;148011.14;1701795;84;21056;-59
2022/01/31 04:55:30;;;;;;;2.50;1.20;;;;;;;1.36;91.79;148012.39;1699178;81;21099;-59
2022/01/31 04:57:57;;;;;;;1.98;1.12;;;;;;;1.35;91.71;148009.81;1723364;82;21059;-60
2022/01/31 05:00:25;;;;;;;2.25;1.50;;;;;;;1.35;91.64;148009.81;1717984;81;21288;-60
2022/01/31 05:02:52;;;;;;;3.27;1.62;;;;;;;1.33;91.60;148004.67;1737069;81;22131;-58
2022/01/31 05:05:18;;;;;;;2.02;1.22;;;;;;;1.32;91.57;148002.09;1724385;81;21018;-59
2022/01/31 05:07:44;;;;;;;2.50;1.30;;;;;;;1.33;91.50;148004.67;1720006;81;21134;-59
2022/01/31 05:10:11;;;;;;;2.58;1.25;;;;;;;1.32;91.37;148002.09;1720210;81;21086;-60
2022/01/31 05:12:38;;;;;;;2.75;1.37;;;;;;;1.30;91.28;147996.95;1724555;82;21498;-58
2022/01/31 05:15:05;;;;;;;2.50;1.40;;;;;;;1.29;91.15;147994.38;1715600;81;21012;-59
2022/01/31 05:17:33;;;;;;;2.58;1.50;;;;;;;1.28;90.98;147991.80;1724863;81;21078;-59
2022/01/31 05:19:59;;;;;;;4.28;1.65;;;;;;;1.25;90.88;147984.08;1712563;81;21110;-60
2022/01/31 05:22:26;;;;;;;3.05;1.50;;;;;;;1.23;90.82;147978.94;1722771;81;21111;-60
2022/01/31 05:24:52;;;;;;;4.37;1.82;;;;;;;1.24;90.83;147982.77;1718353;81;21105;-61
2022/01/31 05:27:19;;;;;;;2.77;1.40;;;;;;;1.25;90.82;147984.08;1708003;81;21069;-59
2022/01/31 05:29:45;;;;;;;2.77;1.07;;;;;;;1.27;90.58;147989.23;1710024;81;21136;-59
2022/01/31 05:32:12;;;;;;;3.67;1.37;;;;;;;1.27;90.31;147990.50;1703926;81;21967;-59
2022/01/31 05:34:38;;;;;;;1.87;1.12;;;;;;;1.27;90.07;147989.23;1707259;81;21107;-60
2022/01/31 05:37:05;;;;;;;1.70;1.05;;;;;;;1.25;89.90;147984.08;1717311;82;21491;-60
2022/01/31 05:39:31;;;;;;;4.10;1.50;;;;;;;1.22;89.72;147976.36;1722843;81;21481;-60
2022/01/31 05:41:58;;;;;;;2.90;1.35;;;;;;;1.18;89.63;147966.02;1750547;81;21469;-60
2022/01/31 05:44:26;;;;;;;1.72;1.10;;;;;;;1.16;89.52;147960.86;1718183;81;21075;-59
2022/01/31 05:46:53;;;;;;;2.27;1.70;;;;;;;1.11;89.43;147950.56;1731007;81;21029;-60
2022/01/31 05:49:19;;;;;;;2.35;1.40;;;;;;;1.09;89.39;147945.42;1702458;81;22244;-59
2022/01/31 05:51:54;;;;;;;2.77;1.45;;;;;;;1.08;89.35;147942.84;1712199;82;21042;-60
2022/01/31 05:54:21;;;;;;;;;;;;;;;1.06;89.17;147937.69;1723906;81;21107;-60
2022/01/31 05:56:47;;;;;;;1.87;0.90;;;;;;;1.04;89.06;147931.23;1724887;82;21795;-61
2022/01/31 05:59:14;;;;;;;2.27;1.10;;;;;;;1.04;89.12;147931.23;1700119;81;21084;-59
2022/01/31 06:01:41;;;;;;;3.65;1.45;;;;;;;1.07;89.07;147940.27;1730351;81;21555;-60
2022/01/31 06:04:08;;;;;;;2.30;1.25;;;;;;;1.11;88.94;147950.56;1735510;80;21419;-60
2022/01/31 06:06:35;;;;;;;1.82;1.10;;;;;;;1.18;88.84;147966.02;1716421;81;21086;-60
2022/01/31 06:09:02;;;;;;;1.42;0.93;;;;;;;1.19;88.43;147969.89;1657548;85;21057;-60
2022/01/31 06:11:31;;;;;;;3.47;1.17;;;;;;;1.16;88.17;147962.17;1723831;81;21043;-59
2022/01/31 06:14:07;;;;;;;3.22;1.40;;;;;;;1.16;88.17;147960.86;1723341;81;21775;-59
2022/01/31 06:16:33;;;;;;;3.02;1.50;;;;;;;1.20;88.33;147972.47;1705221;82;21044;-59
2022/01/31 06:19:00;;;;;;;4.45;1.67;;;;;;;1.28;88.25;147991.80;1728394;81;20985;-59
2022/01/31 06:21:26;;;;;;;4.00;1.50;;;;;;;1.36;88.21;148011.14;1718922;81;21136;-60
2022/01/31 06:23:53;;;;;;;5.92;2.30;;;;;;;1.45;88.12;148033.05;1724085;81;21049;-59
2022/01/31 06:26:21;;;;;;;3.83;1.47;;;;;;;1.56;88.05;148061.37;1723776;81;21097;-60
2022/01/31 06:28:49;;;;;;;4.92;1.40;;;;;;;1.67;87.73;148089.75;1722171;81;21051;-60
2022/01/31 06:31:31;;;;;;;2.98;1.40;;;;;;;1.76;87.16;148110.34;1734274;81;21031;-59
2022/01/31 06:33:59;;;;;;;3.25;1.82;;;;;;;1.82;86.83;148125.80;1710126;81;21189;-59
2022/01/31 06:36:26;;;;;;;2.62;1.40;;;;;;;1.90;86.59;148145.14;1711470;81;21050;-59
2022/01/31 06:38:52;;;;;;;3.25;1.50;;;;;;;1.96;86.13;148161.91;1720618;81;21049;-58
2022/01/31 06:41:19;;;;;;;2.83;1.70;;;;;;;2.03;85.96;148177.36;1727109;81;21087;-59
2022/01/31 06:43:46;;;;;;;5.85;2.42;;;;;;;2.12;85.84;148200.59;1723598;81;21114;-59
2022/01/31 06:46:13;;;;;;;8.30;3.40;;;;;;;2.22;85.57;148226.36;1747220;81;21605;-60
2022/01/31 06:48:40;;;;;;;7.58;3.15;;;;;;;2.33;85.17;148253.44;1725687;80;22428;-63
2022/01/31 06:51:07;;;;;;;7.87;3.40;;;;;;;2.41;84.84;148272.78;1723675;81;21057;-60
2022/01/31 06:53:34;;;;;;;8.90;3.65;;;;;;;2.52;84.62;148301.13;1738861;80;21112;-61
2022/01/31 06:56:01;;;;;;;8.65;3.33;;;;;;;2.63;84.13;148326.95;1710079;81;21391;-61
2022/01/31 06:58:28;;;;;;;8.68;4.08;;;;;;;2.72;83.72;148350.16;1715457;81;21152;-59
2022/01/31 07:01:01;;;;;;;7.65;3.00;;;;;;;2.83;83.44;148378.55;1716774;81;21089;-61
2022/01/31 07:03:30;;;;;;;14.13;4.08;;;;;;;2.95;83.05;148406.91;1698846;82;21072;-60
2022/01/31 07:05:57;;;;;;;9.10;3.25;;;;;;;3.07;82.70;148437.89;1715104;81;21495;-61
2022/01/31 07:08:24;;;;;;;11.40;3.87;;;;;;;3.15;81.93;148458.52;1720379;81;21133;-60
2022/01/31 07:10:52;;;;;;;18.25;3.83;;;;;;;3.23;81.70;148476.61;1711109;81;21309;-60
2022/01/31 07:13:36;;;;;;;14.00;4.40;;;;;;;3.29;81.12;148492.09;1712293;81;21082;-59
2022/01/31 07:15:51;;;;;;;12.35;3.33;;;;;;;3.34;80.97;148504.97;1712359;81;22167;-59
2022/01/31 07:18:20;;;;;;;11.88;3.50;;;;;;;3.41;80.77;148523.03;1726022;80;21103;-59
2022/01/31 07:20:52;;;;;;;10.55;2.87;;;;;;;3.51;80.23;148547.56;1729320;80;21158;-60
2022/01/31 07:23:23;;;;;;;9.68;2.75;;;;;;;3.55;79.78;148556.61;1695284;81;21151;-61
2022/01/31 07:25:46;;;;;;;8.30;2.62;;;;;;;3.56;79.62;148559.19;1720409;81;21108;-60
2022/01/31 07:28:17;;;;;;;10.88;3.67;;;;;;;3.58;79.44;148565.66;1717747;81;21518;-61
2022/01/31 07:30:50;;;;;;;13.55;3.75;;;;;;;3.59;79.47;148566.92;1717842;81;21356;-59
2022/01/31 07:33:18;;;;;;;9.88;3.05;;;;;;;3.63;79.45;148575.97;1721075;81;21598;-60
2022/01/31 07:35:48;;;;;;;4.90;1.92;;;;;;;3.66;79.58;148585.03;1704892;80;21079;-60
2022/01/31 07:38:15;;;;;;;3.58;1.52;;;;;;;3.71;79.78;148596.61;1719402;81;21304;-60
2022/01/31 07:40:42;;;;;;;4.97;1.37;;;;;;;3.77;79.82;148610.81;1715978;81;22245;-60
2022/01/31 07:43:09;;;;;;;2.77;1.30;;;;;;;3.85;79.87;148632.78;1688092;83;21077;-60
2022/01/31 07:45:38;;;;;;;3.15;1.35;;;;;;;3.91;79.87;148646.98;1725154;80;21087;-60
2022/01/31 07:48:05;;;;;;;1.82;1.12;;;;;;;3.95;79.72;148657.31;1720356;81;21106;-62
2022/01/31 07:50:33;;;;;;;5.53;1.55;;;;;;;3.98;79.85;148663.78;1723122;81;21074;-60
2022/01/31 07:53:03;;;;;;;2.70;1.30;;;;;;;4.03;79.82;148675.37;1721400;81;21610;-59
2022/01/31 07:55:28;;;;;;;4.80;1.80;;;;;;;4.07;79.79;148685.69;1701005;82;21621;-60
2022/01/31 07:57:55;;;;;;;3.15;1.30;;;;;;;4.14;79.45;148703.80;1692781;83;21517;-61
2022/01/31 08:00:22;;;;;;;4.08;1.35;;;;;;;4.22;79.11;148724.44;1688853;83;21148;-59
2022/01/31 08:02:49;;;;;;;2.40;1.30;;;;;;;4.22;79.11;148724.44;1686482;83;21096;-59
2022/01/31 08:05:21;;;;;;;3.42;1.65;;;;;;;4.27;79.12;148736.08;1686838;82;21565;-59
2022/01/31 08:07:45;;;;;;;2.85;1.42;;;;;;;4.34;79.10;148752.87;1672210;83;21662;-59
2022/01/31 08:10:12;;;;;;;3.40;1.42;;;;;;;4.42;78.96;148773.53;1685167;83;21104;-60
2022/01/31 08:12:41;;;;;;;2.15;1.30;;;;;;;4.48;78.54;148789.02;1682419;83;21382;-60
2022/01/31 08:15:14;;;;;;;2.92;1.30;;;;;;;4.49;78.39;148791.59;1679114;83;21087;-61
2022/01/31 08:17:38;;;;;;;4.47;1.37;;;;;;;4.55;78.11;148805.81;1687432;82;20959;-59
2022/01/31 08:20:07;;;;;;;1.72;1.17;;;;;;;4.61;77.92;148820.03;1714498;82;21123;-60
2022/01/31 08:22:34;;;;;;;3.55;1.60;;;;;;;4.66;77.84;148834.25;1694548;82;21489;-60
2022/01/31 08:25:01;;;;;;;2.45;1.47;;;;;;;4.76;77.74;148857.50;1678756;83;21100;-59
2022/01/31 08:27:28;;;;;;;5.35;1.95;;;;;;;4.87;77.68;148887.20;1689726;83;21086;-59
2022/01/31 08:30:05;;;;;;;2.95;1.40;;;;;;;4.97;77.19;148910.44;1679796;82;21282;-60
2022/01/31 08:32:33;;;;;;;2.30;1.25;;;;;;;5.06;76.24;148933.73;1689430;83;21120;-61
2022/01/31 08:37:38;;;;;;;4.53;1.20;;;;;;;5.06;75.90;148933.73;1687157;83;21470;-59
2022/01/31 08:40:07;;;;;;;3.52;1.30;;;;;;;5.10;75.85;148944.06;1687350;83;21064;-60
2022/01/31 08:42:34;;;;;;;3.92;1.50;;;;;;;5.14;75.92;148954.39;1688464;83;21122;-60
2022/01/31 08:45:00;;;;;;;3.62;1.60;;;;;;;5.21;75.82;148969.94;1671102;83;21597;-60
2022/01/31 08:47:27;;;;;;;4.60;1.50;;;;;;;5.26;75.74;148984.13;1689331;83;21116;-61
2022/01/31 08:49:54;;;;;;;2.72;1.20;;;;;;;5.30;75.55;148993.19;1687310;83;21136;-60
2022/01/31 08:52:20;;;;;;;4.12;1.37;;;;;;;5.36;75.27;149008.67;1683375;83;21151;-60
2022/01/31 08:54:47;;;;;;;3.45;1.70;;;;;;;5.38;75.01;149012.58;1696401;83;21099;-61
2022/01/31 08:57:14;;;;;;;3.47;1.50;;;;;;;5.38;74.94;149013.84;1719846;81;21594;-60
2022/01/31 08:59:44;;;;;;;4.85;1.40;;;;;;;5.42;74.92;149022.91;1715054;81;21103;-60
2022/01/31 09:02:14;;;;;;;2.72;1.10;;;;;;;5.47;74.56;149034.56;1723159;81;21986;-60
2022/01/31 09:04:57;;;;;;;3.45;1.27;;;;;;;5.46;74.60;149033.23;1690897;83;21060;-59
2022/01/31 09:07:10;;;;;;;2.42;1.07;;;;;;;5.49;74.60;149039.72;1720439;80;21074;-60
2022/01/31 09:09:37;;;;;;;3.10;1.45;;;;;;;5.54;74.48;149052.64;1726552;81;22162;-59
2022/01/31 09:12:08;;;;;;;2.83;1.40;;;;;;;5.57;74.33;149060.39;1719904;81;21395;-62
2022/01/31 09:14:34;;;;;;;3.60;1.32;;;;;;;5.62;74.36;149073.31;1727939;81;21645;-61
2022/01/31 09:17:03;;;;;;;3.12;1.30;;;;;;;5.65;74.11;149081.09;1716027;81;21113;-60
2022/01/31 09:19:30;;;;;;;2.65;1.30;;;;;;;5.68;73.85;149088.84;1715944;81;21017;-59
2022/01/31 09:21:56;;;;;;;2.80;1.15;;;;;;;5.70;73.74;149092.70;1719253;81;22217;-60
2022/01/31 09:24:23;;;;;;;3.45;1.40;;;;;;;5.73;73.76;149100.45;1712902;81;21067;-59
2022/01/31 09:26:50;;;;;;;2.87;1.22;;;;;;;5.76;73.74;149106.94;1716868;81;21868;-60
2022/01/31 09:29:18;;;;;;;4.60;1.40;;;;;;;5.78;73.80;149112.11;1717668;81;21546;-61
2022/01/31 09:31:44;;;;;;;4.45;1.72;;;;;;;5.78;73.62;149113.42;1725656;81;21575;-59
2022/01/31 09:34:11;;;;;;;3.75;1.70;;;;;;;5.78;73.69;149112.11;1722245;81;21091;-60
2022/01/31 09:36:39;;;;;;;4.08;2.00;;;;;;;5.78;73.74;149112.11;1723630;80;21172;-61
2022/01/31 09:39:07;;;;;;;2.40;1.40;;;;;;;5.80;73.58;149117.28;1719307;81;21125;-60
2022/01/31 09:41:37;;;;;;;2.65;1.07;;;;;;;5.78;73.32;149112.11;1718361;81;21074;-60
2022/01/31 09:44:17;;;;;;;3.10;1.27;;;;;;;5.74;73.25;149103.03;1710678;81;21128;-61
2022/01/31 09:47:04;;;;;;;2.62;1.15;;;;;;;5.71;73.32;149095.28;1710724;81;21146;-63
2022/01/31 09:49:17;;;;;;;3.00;1.30;;;;;;;5.71;73.38;149096.59;1692334;81;21065;-62
2022/01/31 09:51:44;;;;;;;2.35;1.30;;;;;;;5.77;73.62;149109.52;1715114;81;21132;-60
2022/01/31 09:54:10;;;;;;;7.10;1.82;;;;;;;5.86;73.67;149132.81;1723865;81;21057;-61
2022/01/31 09:56:40;;;;;;;4.53;1.85;;;;;;;5.91;73.37;149145.75;1732136;80;21085;-63
2022/01/31 09:59:09;;;;;;;4.58;1.70;;;;;;;5.97;73.15;149159.97;1736718;80;21641;-60
2022/01/31 10:01:49;;;;;;;7.37;2.25;;;;;;;6.01;72.72;149171.63;1730088;80;21076;-62
2022/01/31 10:04:24;;;;;;;8.15;2.25;;;;;;;6.08;72.67;149187.14;1723352;80;21782;-63
2022/01/31 10:06:54;;;;;;;4.40;1.50;;;;;;;6.21;72.32;149219.52;1737403;80;21090;-62
2022/01/31 10:09:27;;;;;;;3.67;1.42;;;;;;;6.34;71.54;149253.13;1729668;80;21094;-60
2022/01/31 10:12:18;;;;;;;5.17;1.12;;;;;;;6.47;67.20;149285.45;1736341;81;21095;-61
2022/01/31 10:17:40;;;;;;;3.80;1.37;;;;;;;6.71;63.91;149346.28;1725940;80;21091;-62
2022/01/31 10:20:18;;;;;;;4.08;1.40;;;;;;;6.85;62.70;149381.22;1729776;81;22043;-61
2022/01/31 10:22:46;;;;;;;4.45;1.60;;;;;;;6.97;61.32;149409.70;1697950;82;21112;-60
2022/01/31 10:25:19;;;;;;;5.20;1.65;;;;;;;7.00;60.39;149418.73;1675964;83;21465;-61
2022/01/31 10:27:47;;;;;;;4.42;1.55;;;;;;;7.07;59.96;149434.25;1699460;83;21091;-60
2022/01/31 10:30:17;;;;;;;3.50;1.42;;;;;;;7.10;58.60;149443.33;1691040;83;21341;-61
2022/01/31 10:32:46;;;;;;;3.40;1.45;;;;;;;7.16;58.64;149458.84;1737938;80;21112;-62
2022/01/31 10:35:21;;;;;;;3.12;1.40;;;;;;;7.27;58.53;149486.03;1735009;80;21467;-60
2022/01/31 10:37:48;;;;;;;2.90;1.25;;;;;;;7.43;57.83;149526.20;1730964;82;21729;-60
2022/01/31 10:54:14;;;;;;;3.92;1.57;;;;;;;8.01;53.92;149671.20;1727578;80;21398;-61
2022/01/31 10:56:46;;;;;;;2.95;1.47;;;;;;;7.93;53.87;149649.19;1664908;84;21610;-60
2022/01/31 10:59:19;;;;;;;4.10;1.20;;;;;;;7.90;54.11;149642.73;1643530;85;21359;-61
2022/01/31 11:01:49;;;;;;;3.65;1.57;;;;;;;7.90;53.82;149642.73;1642328;85;21096;-62
2022/01/31 11:04:15;;;;;;;4.67;1.77;;;;;;;7.90;54.31;149642.73;1643491;85;21203;-62
2022/01/31 11:06:47;;;;;;;4.28;1.45;;;;;;;7.95;54.25;149655.67;1664274;85;21135;-61
2022/01/31 11:09:16;;;;;;;3.87;1.42;;;;;;;7.97;54.50;149659.58;1661590;84;21147;-62
2022/01/31 11:11:45;;;;;;;3.80;1.30;;;;;;;7.99;54.36;149666.03;1662847;84;21372;-61
2022/01/31 11:14:13;;;;;;;4.42;1.37;;;;;;;7.97;53.31;149660.84;1668148;83;21546;-62
2022/01/31 11:16:42;;;;;;;4.87;1.52;;;;;;;7.88;53.38;149637.56;1670222;84;21107;-62
2022/01/31 11:19:21;;;;;;;4.05;1.80;;;;;;;7.86;53.62;149632.38;1681129;83;20966;-62
2022/01/31 11:21:47;;;;;;;4.70;1.50;;;;;;;7.87;54.13;149634.97;1662779;84;21773;-61
2022/01/31 11:24:27;;;;;;;3.72;1.60;;;;;;;7.91;54.30;149645.31;1675638;84;21079;-60
2022/01/31 11:27:12;;;;;;;4.25;1.52;;;;;;;7.95;54.07;149655.67;1668394;83;21642;-62
2022/01/31 11:29:49;;;;;;;5.20;1.87;;;;;;;7.96;54.27;149658.27;1714630;81;21038;-60
2022/01/31 11:32:15;;;;;;;5.05;1.87;;;;;;;7.99;54.39;149666.03;1710058;81;21158;-61
2022/01/31 11:34:44;;;;;;;7.10;2.50;;;;;;;7.98;54.18;149663.44;1714971;81;21144;-61
2022/01/31 11:37:13;;;;;;;4.90;2.10;;;;;;;7.98;54.17;149662.16;1718191;81;21542;-61
2022/01/31 11:39:42;;;;;;;4.53;2.00;;;;;;;7.98;54.11;149663.44;1717149;82;21054;-61
2022/01/31 11:42:09;;;;;;;4.65;1.90;;;;;;;7.97;54.12;149660.84;1715845;81;21104;-60
2022/01/31 11:44:57;;;;;;;6.60;2.52;;;;;;;7.97;53.96;149660.84;1716282;81;21531;-60
2022/01/31 11:47:25;;;;;;;4.20;1.90;;;;;;;7.98;54.06;149663.44;1712202;81;21535;-61
2022/01/31 11:49:55;;;;;;;5.85;1.90;;;;;;;8.05;54.15;149678.97;1712146;81;21338;-60
2022/01/31 11:52:23;;;;;;;6.08;1.90;;;;;;;8.05;54.03;149678.97;1717452;81;21533;-62
2022/01/31 11:54:57;;;;;;;5.33;1.65;;;;;;;8.06;53.66;149681.55;1716207;81;21948;-61
2022/01/31 11:57:29;;;;;;;4.50;1.50;;;;;;;8.05;53.35;149680.28;1735171;80;21061;-62
2022/01/31 12:00:02;;;;;;;5.85;2.10;;;;;;;8.01;52.96;149671.20;1759386;80;21067;-64